Airfield :
LOGIN :

Register | Disclaimer

   EN    FR    IT 

 










Legend :    VFR   Marginal VFR   IFR   Intensive IFR   Very Intensive IFR
Visi :
Ceiling :
>= 8 km
>= 3000ft
5 to 8 km
1000 to 3000 ft
1500m to 5 km
500 to 1000 ft
800 to 1500m
200 to 500 ft
< 800m
< 200 ft
Symbols :   Thunderstorms  Fog  Heavy snow  Heavy precipitations  Wind > 20 kt
SIGMETs :     Misc.  Thunderstorms  Icing  Turbulence  Mountain Waves  Volcanic Ashes







- Airport Elevation : 464 ft
- IATA code : EVX
- Download approach charts


LFOE - Evreux

CURRENT METAR :
  • 181800Z AUTO 03009KT CAVOK 14/09 Q1022 NOSIG

EXPIRED METARs :
  • 181730Z AUTO 03007KT CAVOK 14/09 Q1022 NOSIG
  • 181700Z AUTO 03009KT CAVOK 15/09 Q1022 NOSIG
  • 181630Z AUTO 02011KT CAVOK 16/09 Q1022 NOSIG
  • 181600Z AUTO 03013KT 9999 FEW029 17/10 Q1021 NOSIG
  • 181530Z AUTO 02012KT 9999 BKN028 17/10 Q1021 NOSIG

TAF TAF LFOE
Valid from the 18 at 15:00 until the 19 at 15:00 UTC


181400Z 1815/1915 03010G20KT 9999 FEW030
BECMG 1820/1822 01006KT
TEMPO 1902/1908 3000 BR
No reported NOTAMs for that airfield.



MET'MAP, your aeronautical weather chart ! - Copyright ORBIFLY December 2007 - Disclaimer

ORBIFLY MET'MAP TEAM :

Programming & Development : Alexandra Zaïnal
Concept & Development : Baudouin d'Aumeries
Co-Development & Prog : Marc-Olivier Méhu
Technical & hardware support : Manuel Goepfert

Contact : metmap@orbifly.com




SOURCES & CREDITS :

   NOAA